Angoon, Alaska
Current Conditions -  °F | °C
As of 6:56 AM on Friday 31 Oct 2014 (Local Time) from PAGN Reporting Station
Light Rain Light Rain  
Wind Chill: 39°   Ceiling: 3700
Heat Index: 39°   Visibility: 10mi
Dew Point: 39°   Wind: 0mph
Humidity: 100%   Direction: NA
Pressure: 29.53"   Gusts: NA
Location:  57.5°N, 134.59°W
Report Text: PAGN 311456Z AUTO 00000KT 10SM -RA FEW026 BKN037 04/04 A2953 RMK AO2 TSNO 51003 60001 T00380038 P0001 SLP002 $
Loading
Personal Weather Stations






























Interactive Weather Map
Tropical Storm Tracking
New forecast layout! Learn more

10-Day Weather Forecast

Advertisements
Track Severe Weather on mobile